Time;durP1;ratioP1;P1;durP2;ratioP2;P2;SDS_P1;SDS_P2;PMS_P1;PMS_P2;Temp;Humidity;BMP_temperature;BMP_pressure;BME280_temperature;BME280_humidity;BME280_pressure;Samples;Min_cycle;Max_cycle;Signal;HPM_P1;HPM_P2
2021/10/13 00:00:09;;;;;;;21.15;12.30;;;;;;;4.13;82.45;94162.98;1609560;87;21066;-58
2021/10/13 00:02:37;;;;;;;19.70;13.28;;;;;;;4.12;82.53;94162.22;1640868;85;21171;-58
2021/10/13 00:05:06;;;;;;;21.62;13.80;;;;;;;4.12;82.47;94152.70;1644971;87;21030;-58
2021/10/13 00:07:33;;;;;;;18.65;13.55;;;;;;;4.11;82.40;94153.11;1645640;87;21016;-58
2021/10/13 00:09:59;;;;;;;21.35;14.65;;;;;;;4.10;82.43;94143.41;1639014;87;21016;-59
2021/10/13 00:12:28;;;;;;;18.40;13.30;;;;;;;4.08;82.46;94145.79;1639182;87;21499;-59
2021/10/13 00:14:55;;;;;;;27.42;15.38;;;;;;;4.08;82.45;94145.18;1639271;87;21125;-59
2021/10/13 00:17:21;;;;;;;29.50;16.87;;;;;;;4.10;82.36;94143.41;1636654;87;21412;-58
2021/10/13 00:19:48;;;;;;;23.73;15.23;;;;;;;4.12;82.52;94143.75;1636491;87;20987;-59
2021/10/13 00:22:15;;;;;;;25.48;15.98;;;;;;;4.16;82.52;94147.95;1643383;87;21058;-60
2021/10/13 00:24:43;;;;;;;22.98;15.83;;;;;;;4.18;82.37;94142.84;1631837;87;21004;-57
2021/10/13 00:27:09;;;;;;;25.27;16.75;;;;;;;4.15;82.23;94146.41;1644499;87;21159;-59
2021/10/13 00:29:36;;;;;;;19.95;15.18;;;;;;;4.17;82.24;94149.48;1605572;87;21063;-58
2021/10/13 00:32:05;;;;;;;21.02;13.53;;;;;;;4.20;82.30;94144.55;1638097;87;21170;-59
2021/10/13 00:34:33;;;;;;;21.75;14.07;;;;;;;4.22;82.10;94143.53;1641089;87;21035;-59
2021/10/13 00:36:59;;;;;;;20.43;14.55;;;;;;;4.22;81.75;94141.42;1635811;87;21137;-59
2021/10/13 00:39:26;;;;;;;21.20;15.05;;;;;;;4.17;81.74;94145.97;1638028;87;21244;-59
2021/10/13 00:41:53;;;;;;;21.00;15.40;;;;;;;4.11;82.21;94144.36;1641629;87;20963;-59
2021/10/13 00:44:20;;;;;;;22.32;16.20;;;;;;;4.17;82.28;94155.50;1636497;87;21002;-59
2021/10/13 00:46:47;;;;;;;25.00;14.68;;;;;;;4.14;81.90;94153.63;1645312;87;21007;-58
2021/10/13 00:49:14;;;;;;;18.70;14.50;;;;;;;4.09;81.92;94150.80;1635190;87;21023;-58
2021/10/13 00:51:40;;;;;;;23.35;16.37;;;;;;;4.09;81.93;94152.77;1635945;87;21132;-59
2021/10/13 00:54:09;;;;;;;25.55;17.05;;;;;;;4.10;81.70;94141.47;1636756;87;20999;-58
2021/10/13 00:56:36;;;;;;;23.15;14.47;;;;;;;4.07;81.75;94152.42;1641450;87;21056;-59
2021/10/13 00:59:02;;;;;;;17.12;13.90;;;;;;;4.04;81.74;94151.30;1641920;87;21077;-57
2021/10/13 01:02:01;;;;;;;18.90;14.00;;;;;;;4.01;81.87;94148.63;1641717;87;21035;-57
2021/10/13 01:04:53;;;;;;;20.43;13.28;;;;;;;3.99;82.03;94157.23;1642191;87;21870;-58
2021/10/13 01:07:47;;;;;;;23.98;15.43;;;;;;;3.98;82.27;94152.20;1641445;87;21162;-58
2021/10/13 01:10:20;;;;;;;17.55;12.78;;;;;;;4.00;82.48;94149.24;1634115;87;21027;-58
2021/10/13 01:13:11;;;;;;;22.75;15.00;;;;;;;4.05;82.24;94147.38;1636319;87;21047;-58
2021/10/13 01:16:10;;;;;;;18.35;13.20;;;;;;;4.06;82.45;94146.20;1645618;87;20947;-58
2021/10/13 01:19:02;;;;;;;19.00;13.32;;;;;;;4.09;82.50;94145.35;1645872;87;21181;-58
2021/10/13 01:21:50;;;;;;;17.70;13.03;;;;;;;4.05;82.38;94137.86;1638809;87;21518;-57
2021/10/13 01:24:57;;;;;;;17.27;11.73;;;;;;;4.05;82.88;94143.91;1646355;86;21127;-58
2021/10/13 01:27:42;;;;;;;18.07;12.30;;;;;;;4.15;82.96;94143.69;1635642;87;20968;-59
2021/10/13 01:30:09;;;;;;;20.92;14.78;;;;;;;4.24;82.81;94140.40;1639545;86;21028;-58
2021/10/13 01:32:38;;;;;;;24.65;15.35;;;;;;;4.23;82.71;94150.51;1638837;87;21163;-58
2021/10/13 01:35:06;;;;;;;23.22;15.95;;;;;;;4.21;82.68;94145.33;1643875;87;21540;-59
2021/10/13 01:37:45;;;;;;;24.07;16.80;;;;;;;4.19;82.61;94150.40;1645562;87;21526;-59
2021/10/13 01:40:15;;;;;;;32.08;19.00;;;;;;;4.16;82.45;94153.97;1639209;87;21028;-59
2021/10/13 01:42:47;;;;;;;29.02;17.92;;;;;;;4.06;82.44;94148.91;1642556;87;21097;-59
2021/10/13 01:45:15;;;;;;;28.83;19.23;;;;;;;3.96;82.52;94147.77;1643876;87;21824;-58
2021/10/13 01:47:42;;;;;;;31.85;20.17;;;;;;;3.86;82.83;94148.16;1617903;86;21006;-58
2021/10/13 01:50:09;;;;;;;26.17;18.12;;;;;;;3.83;83.09;94161.24;1633607;87;21054;-59
2021/10/13 01:52:36;;;;;;;25.00;16.95;;;;;;;3.83;83.20;94158.52;1604405;87;21535;-59
2021/10/13 01:55:04;;;;;;;27.73;18.27;;;;;;;3.85;83.13;94156.76;1610430;87;21039;-58
2021/10/13 01:57:31;;;;;;;22.62;16.42;;;;;;;3.86;83.25;94158.29;1635739;87;21193;-58
2021/10/13 02:00:01;;;;;;;23.18;15.98;;;;;;;3.89;83.21;94160.92;1642089;87;21024;-58
2021/10/13 02:02:31;;;;;;;26.62;17.90;;;;;;;3.91;83.39;94158.55;1638055;85;21142;-58
2021/10/13 02:04:58;;;;;;;24.80;17.00;;;;;;;3.94;83.27;94160.45;1644672;87;21567;-58
2021/10/13 02:07:27;;;;;;;19.75;14.05;;;;;;;3.94;83.39;94163.75;1635114;86;21099;-58
2021/10/13 02:09:57;;;;;;;16.00;12.53;;;;;;;3.95;83.37;94167.43;1635406;87;21126;-58
2021/10/13 02:12:24;;;;;;;17.30;13.68;;;;;;;3.97;83.28;94168.35;1644266;87;21379;-58
2021/10/13 02:14:51;;;;;;;19.02;13.43;;;;;;;3.98;83.46;94172.03;1639652;87;20980;-58
2021/10/13 02:17:18;;;;;;;16.60;12.78;;;;;;;4.02;83.53;94170.00;1633215;87;21063;-58
2021/10/13 02:19:45;;;;;;;14.85;12.98;;;;;;;4.09;83.58;94172.56;1600014;87;21151;-58
2021/10/13 02:22:14;;;;;;;17.75;13.93;;;;;;;4.12;83.30;94166.89;1639807;87;21104;-58
2021/10/13 02:24:47;;;;;;;15.50;12.05;;;;;;;4.11;83.08;94166.14;1631862;87;21004;-58
2021/10/13 02:27:25;;;;;;;14.90;11.38;;;;;;;4.12;82.92;94177.20;1641319;87;21094;-58
2021/10/13 02:29:52;;;;;;;15.25;12.50;;;;;;;4.11;82.92;94176.24;1634343;87;21019;-58
2021/10/13 02:32:18;;;;;;;17.15;12.03;;;;;;;4.09;82.89;94173.92;1642842;86;21042;-59
2021/10/13 02:34:45;;;;;;;20.57;13.72;;;;;;;4.06;82.84;94174.02;1632054;87;21134;-59
2021/10/13 02:37:12;;;;;;;16.95;14.20;;;;;;;4.01;83.01;94179.34;1643417;87;20952;-59
2021/10/13 02:39:38;;;;;;;16.60;11.38;;;;;;;4.02;83.18;94182.24;1635508;87;21067;-58
2021/10/13 02:42:05;;;;;;;13.13;10.85;;;;;;;4.04;83.11;94187.28;1637588;87;21205;-58
2021/10/13 02:44:32;;;;;;;14.20;10.55;;;;;;;4.02;83.06;94182.85;1604166;87;21325;-59
2021/10/13 02:47:19;;;;;;;13.25;11.25;;;;;;;4.05;82.98;94188.20;1641164;87;21527;-59
2021/10/13 02:50:06;;;;;;;14.35;10.82;;;;;;;4.08;82.91;94192.05;1607443;87;21542;-57
2021/10/13 02:53:01;;;;;;;14.23;11.30;;;;;;;4.09;82.87;94191.62;1636669;87;21471;-58
2021/10/13 02:55:41;;;;;;;15.60;13.43;;;;;;;4.12;82.64;94194.10;1645419;87;21089;-58
2021/10/13 02:58:21;;;;;;;13.72;11.10;;;;;;;4.08;82.49;94202.33;1609133;87;21000;-58
2021/10/13 03:00:50;;;;;;;13.55;10.23;;;;;;;4.11;82.17;94200.73;1640727;87;21180;-58
2021/10/13 03:03:27;;;;;;;12.50;10.68;;;;;;;4.09;81.95;94201.14;1635252;86;21024;-59
2021/10/13 03:05:55;;;;;;;11.68;9.45;;;;;;;4.02;81.89;94197.20;1642764;87;21098;-56
2021/10/13 03:08:22;;;;;;;11.35;9.60;;;;;;;3.99;82.09;94200.77;1632847;87;21024;-58
2021/10/13 03:10:50;;;;;;;12.03;9.88;;;;;;;4.00;82.03;94196.86;1645644;86;21051;-58
2021/10/13 03:13:22;;;;;;;13.83;11.88;;;;;;;3.95;82.22;94206.88;1619249;87;21084;-58
2021/10/13 03:15:49;;;;;;;12.05;10.65;;;;;;;3.94;82.46;94201.27;1640088;87;21091;-59
2021/10/13 03:18:16;;;;;;;12.68;9.35;;;;;;;3.98;82.47;94204.68;1636817;87;21039;-58
2021/10/13 03:20:43;;;;;;;10.63;8.85;;;;;;;4.02;82.45;94204.62;1642561;87;20991;-58
2021/10/13 03:23:12;;;;;;;11.30;9.20;;;;;;;4.01;82.30;94205.20;1643654;87;21023;-57
2021/10/13 03:25:38;;;;;;;12.85;8.43;;;;;;;3.99;82.41;94198.05;1611025;88;21906;-59
2021/10/13 03:28:06;;;;;;;9.08;8.18;;;;;;;4.00;82.36;94207.75;1637578;87;21020;-58
2021/10/13 03:30:33;;;;;;;9.18;7.45;;;;;;;3.98;82.15;94201.96;1632912;87;21516;-58
2021/10/13 03:33:00;;;;;;;8.85;7.95;;;;;;;3.95;82.10;94198.72;1632222;87;21028;-59
2021/10/13 03:35:31;;;;;;;8.28;7.35;;;;;;;3.93;81.80;94198.38;1641725;87;21063;-59
2021/10/13 03:38:01;;;;;;;10.98;7.37;;;;;;;3.93;81.87;94194.29;1645558;86;21171;-58
2021/10/13 03:40:29;;;;;;;8.20;6.70;;;;;;;3.91;81.48;94195.27;1637804;87;21575;-59
2021/10/13 03:42:55;;;;;;;11.73;8.80;;;;;;;3.87;81.59;94200.02;1633922;87;21091;-59
2021/10/13 03:45:23;;;;;;;10.75;8.68;;;;;;;3.89;81.64;94196.29;1638451;87;21535;-59
2021/10/13 03:47:50;;;;;;;9.63;8.25;;;;;;;3.91;81.77;94188.47;1644767;86;21011;-59
2021/10/13 03:50:20;;;;;;;10.40;8.05;;;;;;;3.94;81.69;94182.22;1641423;87;21176;-58
2021/10/13 03:52:49;;;;;;;9.20;8.18;;;;;;;3.97;81.40;94193.63;1645255;87;21618;-58
2021/10/13 03:55:17;;;;;;;11.18;9.30;;;;;;;3.94;81.21;94190.38;1645550;87;21533;-58
2021/10/13 03:57:43;;;;;;;12.15;10.82;;;;;;;3.89;81.34;94191.45;1609758;87;21450;-58
2021/10/13 04:00:14;;;;;;;15.23;10.45;;;;;;;3.85;81.36;94188.80;1626724;86;21015;-58
2021/10/13 04:02:41;;;;;;;13.85;11.63;;;;;;;3.82;81.39;94187.49;1639775;85;21149;-58
2021/10/13 04:05:08;;;;;;;12.13;10.68;;;;;;;3.81;81.64;94185.95;1641695;86;21031;-58
2021/10/13 04:07:35;;;;;;;12.00;9.95;;;;;;;3.84;81.56;94185.90;1645325;86;21205;-58
2021/10/13 04:10:09;;;;;;;10.80;9.63;;;;;;;3.88;81.48;94192.03;1638483;87;20980;-58
2021/10/13 04:12:36;;;;;;;10.50;9.40;;;;;;;3.86;81.47;94190.94;1645223;87;21050;-59
2021/10/13 04:15:06;;;;;;;15.98;11.57;;;;;;;3.82;81.73;94199.16;1645622;87;21425;-59
2021/10/13 04:17:33;;;;;;;12.78;9.45;;;;;;;3.80;81.83;94194.72;1641686;86;21416;-58
2021/10/13 04:20:04;;;;;;;13.13;11.05;;;;;;;3.86;82.06;94195.77;1635379;86;21019;-60
2021/10/13 04:22:32;;;;;;;13.40;9.57;;;;;;;3.88;81.64;94199.45;1645024;87;21204;-60
2021/10/13 04:24:58;;;;;;;16.27;11.38;;;;;;;3.89;81.69;94207.17;1640268;87;21138;-59
2021/10/13 04:27:25;;;;;;;16.00;12.15;;;;;;;3.93;81.76;94211.98;1645564;87;21197;-59
2021/10/13 04:29:52;;;;;;;19.57;14.60;;;;;;;3.97;81.68;94208.59;1638614;87;21010;-59
2021/10/13 04:32:20;;;;;;;23.40;13.60;;;;;;;4.01;81.45;94207.92;1640352;87;21071;-60
2021/10/13 04:34:48;;;;;;;20.85;14.85;;;;;;;4.02;81.19;94208.09;1638882;86;21083;-59
2021/10/13 04:37:16;;;;;;;25.65;15.50;;;;;;;3.94;81.05;94211.37;1638261;87;21610;-58
2021/10/13 04:39:43;;;;;;;20.37;12.37;;;;;;;3.90;81.27;94215.51;1633923;86;21826;-59
2021/10/13 04:42:10;;;;;;;16.50;11.88;;;;;;;3.92;81.32;94217.25;1648101;86;21063;-58
2021/10/13 04:44:36;;;;;;;16.37;11.55;;;;;;;3.91;80.88;94208.13;1632600;86;21034;-58
2021/10/13 04:47:05;;;;;;;18.92;11.75;;;;;;;3.82;80.94;94211.39;1637396;87;20991;-59
2021/10/13 04:49:32;;;;;;;16.97;11.63;;;;;;;3.77;81.28;94214.61;1634014;87;20978;-59
2021/10/13 04:51:59;;;;;;;20.05;11.38;;;;;;;3.73;81.35;94213.88;1637718;87;21920;-59
2021/10/13 04:54:26;;;;;;;16.42;11.38;;;;;;;3.71;81.37;94203.26;1640501;87;21114;-60
2021/10/13 04:56:54;;;;;;;18.05;11.97;;;;;;;3.67;81.31;94217.52;1649219;87;21121;-60
2021/10/13 04:59:20;;;;;;;24.63;14.43;;;;;;;3.63;81.39;94213.49;1633352;87;21495;-61
2021/10/13 05:01:47;;;;;;;22.52;12.55;;;;;;;3.61;81.49;94217.80;1636516;87;21094;-60
2021/10/13 05:04:14;;;;;;;20.32;13.55;;;;;;;3.60;81.59;94219.77;1645474;85;21166;-59
2021/10/13 05:06:43;;;;;;;20.43;13.20;;;;;;;3.60;81.83;94217.05;1645425;87;21611;-58
2021/10/13 05:09:10;;;;;;;14.63;11.38;;;;;;;3.64;81.57;94224.55;1640596;87;21149;-59
2021/10/13 05:11:37;;;;;;;15.95;10.65;;;;;;;3.62;81.31;94221.48;1629621;87;21019;-59
2021/10/13 05:14:04;;;;;;;11.10;9.20;;;;;;;3.60;81.30;94221.13;1639340;87;20983;-59
2021/10/13 05:16:31;;;;;;;11.60;9.83;;;;;;;3.58;81.30;94219.42;1640539;86;21327;-59
2021/10/13 05:18:58;;;;;;;13.18;9.03;;;;;;;3.59;81.33;94229.11;1634482;87;21079;-59
2021/10/13 05:21:25;;;;;;;12.50;9.95;;;;;;;3.58;81.17;94227.58;1636323;87;21027;-59
2021/10/13 05:23:52;;;;;;;11.22;9.20;;;;;;;3.51;80.98;94234.48;1643296;85;21031;-60
2021/10/13 05:26:19;;;;;;;12.28;10.32;;;;;;;3.45;80.98;94238.69;1640401;85;21019;-60
2021/10/13 05:28:46;;;;;;;23.83;16.48;;;;;;;3.40;81.05;94231.01;1637416;85;21845;-60
2021/10/13 05:31:12;;;;;;;22.67;17.37;;;;;;;3.40;81.42;94225.58;1644134;85;20978;-59
2021/10/13 05:33:39;;;;;;;25.60;19.10;;;;;;;3.40;81.34;94226.33;1637292;85;21160;-61
2021/10/13 05:36:06;;;;;;;23.60;18.02;;;;;;;3.41;81.18;94233.91;1627418;85;21125;-60
2021/10/13 05:38:33;;;;;;;27.20;18.40;;;;;;;3.41;81.09;94243.42;1637326;85;21050;-61
2021/10/13 05:41:00;;;;;;;26.15;17.90;;;;;;;3.38;81.08;94246.97;1643455;85;21151;-59
2021/10/13 05:43:27;;;;;;;19.85;14.90;;;;;;;3.37;80.96;94249.48;1638386;85;21030;-59
2021/10/13 05:45:53;;;;;;;22.65;16.15;;;;;;;3.38;80.92;94253.16;1635048;86;21004;-61
2021/10/13 05:48:20;;;;;;;18.62;13.72;;;;;;;3.42;80.84;94252.50;1641360;85;21097;-60
2021/10/13 05:50:47;;;;;;;15.05;11.97;;;;;;;3.53;80.91;94262.02;1644019;85;21089;-61
2021/10/13 05:53:13;;;;;;;15.45;11.93;;;;;;;3.62;80.56;94259.55;1619912;86;21905;-62
2021/10/13 05:55:40;;;;;;;15.50;11.60;;;;;;;3.65;80.26;94264.77;1641067;85;20980;-65
2021/10/13 05:58:07;;;;;;;19.70;14.50;;;;;;;3.70;80.17;94269.11;1651141;85;21094;-61
2021/10/13 06:00:34;;;;;;;18.20;13.55;;;;;;;3.80;80.03;94273.61;1620565;85;21268;-60
2021/10/13 06:03:01;;;;;;;16.37;12.90;;;;;;;3.91;79.94;94274.17;1648839;84;21117;-61
2021/10/13 06:05:29;;;;;;;20.52;14.30;;;;;;;4.08;79.81;94272.34;1632954;85;21142;-63
2021/10/13 06:07:58;;;;;;;22.13;14.43;;;;;;;4.13;79.68;94276.70;1643797;84;21386;-61
2021/10/13 06:10:24;;;;;;;49.75;28.38;;;;;;;4.17;79.59;94277.41;1639745;85;21125;-62
2021/10/13 06:12:51;;;;;;;32.85;18.67;;;;;;;4.25;79.59;94286.96;1630825;85;21148;-62
2021/10/13 06:15:19;;;;;;;29.12;17.67;;;;;;;4.37;79.40;94284.98;1635398;85;22283;-62
2021/10/13 06:17:47;;;;;;;20.32;14.85;;;;;;;4.47;79.08;94298.22;1639681;85;21209;-61
2021/10/13 06:20:13;;;;;;;20.08;15.63;;;;;;;4.55;78.63;94304.47;1639141;85;21065;-64
2021/10/13 06:22:40;;;;;;;16.77;12.70;;;;;;;4.56;78.04;94301.92;1630137;85;21110;-64
2021/10/13 06:25:08;;;;;;;15.25;12.13;;;;;;;4.58;78.03;94307.72;1630473;85;21145;-60
2021/10/13 06:27:35;;;;;;;17.40;12.60;;;;;;;4.64;77.60;94311.48;1635236;85;22334;-63
2021/10/13 06:30:03;;;;;;;16.82;12.07;;;;;;;4.69;77.25;94310.23;1644534;85;21905;-62
2021/10/13 06:32:30;;;;;;;19.77;13.83;;;;;;;4.74;77.31;94309.15;1636074;85;21626;-62
2021/10/13 06:34:56;;;;;;;19.90;13.65;;;;;;;4.85;77.45;94307.56;1635829;85;21073;-63
2021/10/13 06:37:23;;;;;;;21.20;14.60;;;;;;;5.01;77.16;94313.82;1634010;87;21057;-60
2021/10/13 06:39:51;;;;;;;13.25;10.20;;;;;;;5.07;76.77;94318.97;1633229;85;21520;-63
2021/10/13 06:42:18;;;;;;;10.05;8.50;;;;;;;5.10;76.37;94315.97;1638511;85;21158;-62
2021/10/13 06:44:45;;;;;;;13.90;9.45;;;;;;;5.08;76.17;94317.77;1636946;85;21015;-70
2021/10/13 06:47:11;;;;;;;14.93;10.48;;;;;;;5.13;75.99;94321.36;1634110;85;21102;-64
2021/10/13 06:49:38;;;;;;;9.90;8.53;;;;;;;5.13;76.26;94326.81;1627576;85;21626;-61
2021/10/13 06:52:05;;;;;;;12.23;8.73;;;;;;;5.21;76.00;94328.79;1631676;85;21110;-65
2021/10/13 06:54:32;;;;;;;9.30;8.05;;;;;;;5.32;75.71;94330.87;1640563;85;21150;-61
2021/10/13 06:56:59;;;;;;;11.38;8.20;;;;;;;5.38;75.19;94323.72;1628829;85;21112;-63
2021/10/13 06:59:26;;;;;;;9.03;7.78;;;;;;;5.48;74.77;94321.94;1627116;85;21047;-60
2021/10/13 07:01:53;;;;;;;9.63;7.80;;;;;;;5.65;74.33;94323.48;1638247;85;21104;-62
2021/10/13 07:04:20;;;;;;;12.13;8.65;;;;;;;5.79;73.89;94329.40;1628502;85;21116;-63
2021/10/13 07:06:47;;;;;;;11.57;9.20;;;;;;;5.85;73.48;94319.52;1625726;85;21055;-60
2021/10/13 07:09:15;;;;;;;9.80;8.10;;;;;;;5.90;72.98;94318.22;1636738;85;21224;-59
2021/10/13 07:11:43;;;;;;;15.13;9.93;;;;;;;5.89;72.65;94316.11;1639140;85;21539;-63
2021/10/13 07:14:11;;;;;;;16.25;11.15;;;;;;;5.82;72.45;94330.52;1634469;85;21089;-62
2021/10/13 07:16:38;;;;;;;15.38;9.45;;;;;;;5.77;72.88;94331.01;1632023;85;21053;-65
2021/10/13 07:19:06;;;;;;;10.82;8.58;;;;;;;5.79;72.84;94326.67;1622779;85;21939;-60
2021/10/13 07:21:33;;;;;;;13.25;9.93;;;;;;;5.86;72.71;94333.92;1644685;85;21336;-63
2021/10/13 07:23:59;;;;;;;11.30;8.83;;;;;;;5.90;72.53;94331.87;1641682;85;21057;-62
2021/10/13 07:26:27;;;;;;;13.40;9.65;;;;;;;5.92;72.41;94335.72;1646306;85;20994;-61
2021/10/13 07:28:54;;;;;;;18.90;9.25;;;;;;;5.94;72.35;94329.84;1629117;85;20995;-62
2021/10/13 07:31:20;;;;;;;12.63;9.48;;;;;;;6.04;72.42;94323.34;1637476;85;21826;-58
2021/10/13 07:33:47;;;;;;;22.85;12.03;;;;;;;6.08;72.22;94330.84;1636525;85;22324;-62
2021/10/13 07:36:16;;;;;;;19.48;10.72;;;;;;;6.09;72.22;94321.45;1635994;85;21017;-61
2021/10/13 07:38:43;;;;;;;13.65;9.95;;;;;;;6.17;72.27;94329.03;1634927;85;21007;-63
2021/10/13 07:41:09;;;;;;;11.45;9.00;;;;;;;6.28;71.91;94326.81;1635688;85;21002;-61
2021/10/13 07:43:37;;;;;;;20.00;10.82;;;;;;;6.33;71.72;94336.45;1635004;85;21890;-60
2021/10/13 07:46:03;;;;;;;16.57;9.28;;;;;;;6.34;71.64;94337.98;1621266;85;21043;-62
2021/10/13 07:48:32;;;;;;;11.95;8.53;;;;;;;6.34;71.46;94327.06;1628578;86;21074;-60
2021/10/13 07:50:59;;;;;;;14.07;9.38;;;;;;;6.39;71.31;94334.72;1623735;85;21109;-61
2021/10/13 07:53:26;;;;;;;12.28;9.18;;;;;;;6.42;71.34;94333.86;1627275;85;21038;-61
2021/10/13 07:55:53;;;;;;;15.80;10.50;;;;;;;6.52;71.41;94328.73;1631282;85;21092;-61
2021/10/13 07:58:19;;;;;;;22.37;14.70;;;;;;;6.59;71.21;94332.63;1637666;85;21097;-61
2021/10/13 08:00:46;;;;;;;14.20;10.55;;;;;;;6.70;71.22;94328.41;1635893;85;21473;-64
2021/10/13 08:03:13;;;;;;;20.32;12.15;;;;;;;6.86;70.82;94328.96;1622512;85;21183;-62
2021/10/13 08:05:41;;;;;;;12.85;10.78;;;;;;;7.02;70.72;94334.34;1643860;85;22230;-61
2021/10/13 08:08:08;;;;;;;14.80;10.72;;;;;;;7.20;70.25;94335.38;1647794;85;21137;-61
2021/10/13 08:10:36;;;;;;;16.87;12.43;;;;;;;7.34;69.87;94328.88;1629484;85;21060;-63
2021/10/13 08:13:03;;;;;;;13.13;10.85;;;;;;;7.45;69.80;94325.23;1639297;85;21524;-61
2021/10/13 08:15:30;;;;;;;11.33;8.90;;;;;;;7.66;69.59;94331.42;1642242;85;21069;-60
2021/10/13 08:17:57;;;;;;;12.03;9.98;;;;;;;7.89;69.17;94336.55;1637250;85;21041;-61
2021/10/13 08:20:24;;;;;;;12.73;10.00;;;;;;;7.98;68.02;94337.26;1637368;85;21345;-62
2021/10/13 08:22:53;;;;;;;14.75;10.82;;;;;;;7.93;67.61;94345.45;1642694;85;21046;-62
2021/10/13 08:25:20;;;;;;;12.75;10.08;;;;;;;8.00;67.61;94343.06;1633499;85;21082;-63
2021/10/13 08:27:47;;;;;;;19.85;10.00;;;;;;;8.04;67.50;94343.12;1641322;85;21098;-60
2021/10/13 08:30:14;;;;;;;11.83;8.33;;;;;;;8.13;67.54;94339.70;1640222;85;21231;-63
2021/10/13 08:32:40;;;;;;;14.53;11.08;;;;;;;8.19;67.11;94342.86;1633540;85;22569;-62
2021/10/13 08:35:08;;;;;;;24.67;17.87;;;;;;;8.23;66.81;94346.23;1626521;86;21097;-61
2021/10/13 08:37:36;;;;;;;14.75;11.53;;;;;;;8.23;66.53;94349.59;1639925;85;21112;-61
2021/10/13 08:40:06;;;;;;;15.03;10.93;;;;;;;8.25;66.31;94347.93;1652123;85;21125;-64
2021/10/13 08:42:34;;;;;;;15.58;11.93;;;;;;;8.32;66.32;94349.09;1641220;85;21014;-64
2021/10/13 08:45:02;;;;;;;15.93;11.08;;;;;;;8.48;66.17;94346.79;1638844;85;21189;-61
2021/10/13 08:47:29;;;;;;;20.15;12.25;;;;;;;8.60;65.75;94344.00;1619782;85;21124;-61
2021/10/13 08:49:56;;;;;;;13.72;10.13;;;;;;;8.73;65.78;94343.36;1628090;85;21060;-59
2021/10/13 08:52:23;;;;;;;15.80;10.82;;;;;;;8.95;66.52;94341.39;1653931;84;21603;-61
2021/10/13 08:54:49;;;;;;;13.03;10.78;;;;;;;9.11;65.57;94346.08;1643997;85;21038;-63
2021/10/13 08:57:19;;;;;;;23.40;13.45;;;;;;;9.25;65.04;94335.21;1646236;85;21166;-58
2021/10/13 08:59:48;;;;;;;13.45;10.88;;;;;;;9.32;64.51;94343.95;1623701;85;21127;-60
2021/10/13 09:02:15;;;;;;;13.53;11.35;;;;;;;9.44;64.33;94349.20;1650484;85;21087;-60
2021/10/13 09:05:06;;;;;;;15.03;11.65;;;;;;;9.62;63.63;94344.56;1642583;85;21175;-60
2021/10/13 09:07:34;;;;;;;22.67;11.88;;;;;;;9.84;63.69;94341.14;1606914;86;21132;-62
2021/10/13 09:10:03;;;;;;;20.25;11.55;;;;;;;10.04;62.92;94339.43;1631669;85;21110;-62
2021/10/13 09:12:36;;;;;;;22.17;12.45;;;;;;;10.20;62.96;94339.92;1644081;85;21422;-61
2021/10/13 09:15:13;;;;;;;17.92;11.93;;;;;;;10.40;62.61;94342.27;1619115;86;21097;-62
2021/10/13 09:18:02;;;;;;;17.20;11.80;;;;;;;10.64;62.37;94337.13;1633969;85;21104;-62
2021/10/13 09:20:33;;;;;;;16.45;11.25;;;;;;;10.80;60.83;94338.95;1634732;85;21029;-63
2021/10/13 09:23:17;;;;;;;18.35;10.80;;;;;;;10.75;61.40;94340.17;1643790;85;21200;-62
2021/10/13 09:26:07;;;;;;;18.02;12.95;;;;;;;10.82;61.86;94331.64;1659272;85;21062;-63
2021/10/13 09:28:34;;;;;;;13.03;10.45;;;;;;;10.99;60.92;94335.61;1638242;86;21108;-62
2021/10/13 09:31:16;;;;;;;22.00;11.55;;;;;;;11.19;60.68;94340.78;1642992;85;21010;-60
2021/10/13 09:33:59;;;;;;;16.40;10.68;;;;;;;11.37;60.53;94335.25;1659164;85;21054;-63
2021/10/13 09:36:42;;;;;;;14.87;10.13;;;;;;;11.67;59.46;94329.39;1638011;85;21127;-62
2021/10/13 09:39:12;;;;;;;28.23;11.85;;;;;;;11.98;58.48;94323.79;1643387;85;21117;-63
2021/10/13 09:42:12;;;;;;;21.80;10.25;;;;;;;12.46;58.30;94330.88;1617387;85;21088;-62
2021/10/13 09:44:54;;;;;;;22.70;11.75;;;;;;;13.22;57.68;94333.72;1638959;85;21127;-62
2021/10/13 09:47:30;;;;;;;16.05;10.93;;;;;;;14.14;53.87;94334.47;1620715;85;21082;-60
2021/10/13 09:49:57;;;;;;;13.62;9.13;;;;;;;14.62;51.69;94326.15;1633159;86;21328;-62
2021/10/13 09:52:30;;;;;;;19.45;11.78;;;;;;;14.97;50.47;94324.73;1637314;85;21526;-62
2021/10/13 09:55:06;;;;;;;16.02;10.82;;;;;;;15.17;49.44;94318.53;1637500;85;21014;-64
2021/10/13 09:57:46;;;;;;;15.18;9.95;;;;;;;15.45;49.12;94323.80;1634028;85;21098;-61
2021/10/13 10:00:22;;;;;;;14.43;9.85;;;;;;;15.83;47.82;94323.41;1595722;87;21534;-62
2021/10/13 10:02:57;;;;;;;12.45;9.20;;;;;;;16.22;47.33;94321.72;1625968;86;21169;-61
2021/10/13 10:05:34;;;;;;;11.75;8.45;;;;;;;16.83;45.89;94315.95;1658171;85;21101;-61
2021/10/13 10:08:06;;;;;;;23.95;9.20;;;;;;;17.39;44.95;94312.94;1648447;85;21165;-60
2021/10/13 10:10:34;;;;;;;13.93;8.83;;;;;;;17.62;44.65;94317.93;1644972;87;21600;-61
2021/10/13 10:13:11;;;;;;;21.48;9.10;;;;;;;17.50;43.68;94314.98;1625354;86;22152;-61
2021/10/13 10:15:47;;;;;;;17.50;9.10;;;;;;;17.14;44.82;94311.67;1645676;85;21768;-61
2021/10/13 10:18:35;;;;;;;14.10;8.83;;;;;;;16.72;45.11;94310.34;1596212;88;21166;-61
2021/10/13 10:21:26;;;;;;;11.03;9.43;;;;;;;15.98;45.77;94307.41;1629710;86;21155;-60
2021/10/13 10:23:58;;;;;;;14.00;9.63;;;;;;;15.07;47.14;94313.63;1647374;86;21558;-61
2021/10/13 10:26:29;;;;;;;12.40;9.68;;;;;;;14.49;48.29;94311.86;1629481;86;21459;-61
2021/10/13 10:29:03;;;;;;;13.70;9.53;;;;;;;14.05;49.49;94304.14;1624134;85;21793;-58
2021/10/13 10:31:35;;;;;;;18.87;10.15;;;;;;;13.64;51.08;94312.89;1648180;86;20895;-60
2021/10/13 10:34:15;;;;;;;13.62;9.13;;;;;;;13.37;52.16;94304.12;1638136;85;21086;-62
2021/10/13 10:36:48;;;;;;;12.30;9.10;;;;;;;13.11;53.38;94307.29;1646928;85;21017;-60
2021/10/13 10:39:18;;;;;;;12.47;9.13;;;;;;;12.79;54.30;94303.98;1643662;85;21154;-61
2021/10/13 10:41:53;;;;;;;10.05;8.38;;;;;;;12.51;55.10;94299.91;1647601;85;21800;-62
2021/10/13 10:44:34;;;;;;;9.85;7.67;;;;;;;12.24;56.07;94301.44;1640096;85;21524;-67
2021/10/13 10:47:16;;;;;;;14.47;8.18;;;;;;;11.98;56.91;94300.36;1623700;85;21039;-60
2021/10/13 10:49:53;;;;;;;10.50;8.10;;;;;;;11.74;57.41;94294.00;1643746;85;21064;-60
2021/10/13 10:52:26;;;;;;;17.30;10.20;;;;;;;11.52;58.08;94300.33;1653949;85;21007;-61
2021/10/13 10:55:09;;;;;;;18.23;9.60;;;;;;;11.39;58.41;94302.50;1642777;85;21201;-62
2021/10/13 10:57:49;;;;;;;12.85;10.05;;;;;;;11.36;58.24;94304.80;1631000;85;21748;-59
2021/10/13 11:00:27;;;;;;;13.98;9.10;;;;;;;11.35;58.06;94299.15;1645224;84;21042;-64
2021/10/13 11:03:21;;;;;;;12.98;9.38;;;;;;;11.42;58.08;94300.22;1627250;85;21143;-61
2021/10/13 11:05:48;;;;;;;10.23;7.33;;;;;;;12.17;57.90;94293.52;1647164;85;21125;-63
2021/10/13 11:08:16;;;;;;;9.33;7.80;;;;;;;13.54;55.14;94294.13;1638346;85;21106;-63
2021/10/13 11:10:43;;;;;;;10.75;8.75;;;;;;;14.65;54.50;94290.57;1642727;85;21137;-61
2021/10/13 11:13:09;;;;;;;10.85;8.10;;;;;;;15.61;51.45;94281.61;1673370;85;21105;-60
2021/10/13 11:15:39;;;;;;;10.05;7.05;;;;;;;16.24;48.39;94287.28;1635073;85;21078;-63
2021/10/13 11:18:16;;;;;;;6.78;5.55;;;;;;;16.39;47.19;94283.12;1629886;85;21475;-64
2021/10/13 11:20:44;;;;;;;12.35;7.20;;;;;;;16.21;46.48;94284.11;1635654;85;21159;-63
2021/10/13 11:23:11;;;;;;;8.48;6.28;;;;;;;15.90;46.56;94275.80;1637570;86;21213;-60
2021/10/13 11:25:39;;;;;;;11.60;7.58;;;;;;;15.59;46.96;94278.58;1642855;87;21073;-60
2021/10/13 11:28:09;;;;;;;17.37;13.15;;;;;;;15.23;47.77;94281.97;1645287;87;21129;-62
2021/10/13 11:30:43;;;;;;;13.50;8.70;;;;;;;14.83;48.89;94284.75;1646442;86;21551;-62
2021/10/13 11:33:13;;;;;;;23.10;10.18;;;;;;;14.41;49.45;94285.71;1640750;85;21175;-60
2021/10/13 11:35:40;;;;;;;13.78;8.75;;;;;;;14.01;50.39;94280.08;1647837;85;21248;-63
2021/10/13 11:38:07;;;;;;;16.20;9.40;;;;;;;13.76;50.77;94282.05;1654613;85;21098;-63
2021/10/13 11:40:34;;;;;;;17.98;8.65;;;;;;;13.48;51.12;94280.84;1627885;86;21028;-61